createdAt,value
2022-10-25T00:03:57.445Z,108.40
2022-10-25T00:14:04.619Z,111.73
2022-10-25T00:24:10.293Z,112.00
2022-10-25T00:34:16.085Z,111.73
2022-10-25T00:44:49.935Z,109.97
2022-10-25T00:54:55.782Z,107.87
2022-10-25T01:04:59.658Z,107.63
2022-10-25T01:15:05.834Z,104.87
2022-10-25T01:25:38.237Z,105.97
2022-10-25T01:35:51.454Z,106.27
2022-10-25T01:46:02.557Z,105.57
2022-10-25T01:56:08.355Z,105.37
2022-10-25T02:06:26.816Z,104.60
2022-10-25T02:16:51.398Z,106.30
2022-10-25T02:27:03.320Z,104.80
2022-10-25T02:37:07.933Z,101.80
2022-10-25T02:47:11.997Z,103.17
2022-10-25T02:57:16.588Z,101.40
2022-10-25T03:07:19.885Z,99.57
2022-10-25T03:17:24.445Z,99.10
2022-10-25T03:27:27.686Z,101.77
2022-10-25T03:37:32.317Z,99.13
2022-10-25T03:47:35.693Z,100.50
2022-10-25T03:57:40.430Z,100.40
2022-10-25T04:07:43.738Z,101.83
2022-10-25T04:17:51.471Z,101.60
2022-10-25T04:27:55.220Z,99.50
2022-10-25T04:38:00.425Z,96.90
2022-10-25T04:48:03.678Z,96.07
2022-10-25T04:58:08.255Z,95.23
2022-10-25T05:08:11.960Z,97.60
2022-10-25T05:18:16.602Z,96.87
2022-10-25T05:28:19.870Z,95.07
2022-10-25T05:38:24.542Z,105.37
2022-10-25T05:48:27.757Z,106.47
2022-10-25T05:58:32.436Z,94.43
2022-10-25T06:08:37.077Z,96.60
2022-10-25T06:18:41.818Z,120.20
2022-10-25T06:28:46.437Z,96.23
2022-10-25T06:38:51.948Z,106.57
2022-10-25T06:48:57.468Z,98.23
2022-10-25T06:59:02.539Z,100.80
2022-10-25T07:09:09.343Z,97.97
2022-10-25T07:19:14.158Z,100.10
2022-10-25T07:29:17.458Z,100.77
2022-10-25T07:39:22.065Z,100.07
2022-10-25T07:49:25.391Z,100.07
2022-10-25T07:59:30.495Z,99.70
2022-10-25T08:09:38.422Z,99.35
2022-10-25T08:19:45.508Z,105.88
2022-10-25T08:29:52.097Z,110.18
2022-10-25T08:39:56.740Z,117.40
2022-10-25T08:50:06.421Z,120.07
2022-10-25T09:00:19.655Z,119.28
2022-10-25T09:10:34.157Z,127.68
2022-10-25T09:20:47.188Z,129.80
2022-10-25T09:30:54.147Z,114.57
2022-10-25T09:41:05.199Z,108.15
2022-10-25T09:51:18.168Z,104.75
2022-10-25T10:01:26.995Z,101.43
2022-10-25T10:11:31.835Z,100.07
2022-10-25T10:21:38.538Z,96.03
2022-10-25T10:31:44.637Z,102.47
2022-10-25T10:42:03.379Z,96.63
2022-10-25T10:52:07.656Z,95.30
2022-10-25T11:02:30.092Z,97.97
2022-10-25T11:12:36.531Z,97.90
2022-10-25T11:23:04.222Z,100.10
2022-10-25T11:33:37.656Z,107.65
2022-10-25T11:44:00.810Z,116.05
2022-10-25T11:54:18.730Z,124.50
2022-10-25T12:04:49.581Z,121.07
2022-10-25T12:14:57.454Z,123.18
2022-10-25T12:25:05.388Z,127.60
2022-10-25T12:35:21.638Z,126.00
2022-10-25T12:45:56.034Z,137.85
2022-10-25T12:56:05.593Z,128.68
2022-10-25T13:06:31.963Z,135.32
2022-10-25T13:16:36.762Z,125.93
2022-10-25T13:27:22.015Z,118.82
2022-10-25T13:37:44.215Z,119.93
2022-10-25T13:47:51.872Z,120.38
2022-10-25T13:57:57.099Z,116.97
2022-10-25T14:08:20.553Z,117.38
2022-10-25T14:18:25.221Z,114.25
2022-10-25T14:28:32.086Z,108.93
2022-10-25T14:38:49.962Z,103.43
2022-10-25T14:48:59.028Z,99.45
2022-10-25T14:59:05.010Z,97.90
2022-10-25T15:20:24.909Z,96.63
2022-10-25T15:30:37.400Z,122.13
2022-10-25T15:40:42.814Z,102.57
2022-10-25T15:50:52.471Z,101.73
2022-10-25T16:01:13.165Z,103.40
2022-10-25T16:11:20.547Z,122.10
2022-10-25T16:21:27.221Z,110.93
2022-10-25T16:31:30.459Z,92.43
2022-10-25T16:41:35.495Z,108.00
2022-10-25T16:51:39.917Z,90.37
2022-10-25T17:01:44.971Z,92.40
2022-10-25T17:11:48.378Z,89.57
2022-10-25T17:21:53.015Z,89.37
2022-10-25T17:31:56.978Z,96.07
2022-10-25T17:42:05.032Z,93.43
2022-10-25T17:52:09.616Z,89.33
2022-10-25T18:02:14.355Z,92.70
2022-10-25T18:12:17.764Z,91.10
2022-10-25T18:22:22.430Z,89.87
2022-10-25T18:32:36.412Z,120.33
2022-10-25T18:42:42.450Z,105.83
2022-10-25T18:52:45.771Z,112.57
2022-10-25T19:02:53.940Z,106.03
2022-10-25T19:12:57.246Z,106.97
2022-10-25T19:23:02.009Z,90.03
2022-10-25T19:33:06.301Z,89.47
2022-10-25T19:43:15.865Z,99.30
2022-10-25T19:53:20.659Z,99.20
2022-10-25T20:03:25.663Z,99.40
2022-10-25T20:13:29.839Z,100.17
2022-10-25T20:23:35.327Z,100.40
2022-10-25T20:33:40.103Z,97.90
2022-10-25T20:43:48.081Z,94.30
2022-10-25T20:53:51.448Z,97.87
2022-10-25T21:03:56.169Z,92.93
2022-10-25T21:13:59.419Z,97.67
2022-10-25T21:24:05.955Z,94.43
2022-10-25T21:34:09.389Z,101.87
2022-10-25T21:44:13.984Z,95.20
2022-10-25T21:54:17.244Z,95.07
2022-10-25T22:04:23.803Z,94.97
2022-10-25T22:14:27.212Z,95.13
2022-10-25T22:24:31.850Z,95.00
2022-10-25T22:34:35.139Z,96.60
2022-10-25T22:44:39.930Z,100.10
2022-10-25T22:54:43.162Z,97.13
2022-10-25T23:04:47.796Z,95.67
2022-10-25T23:14:51.045Z,95.23
2022-10-25T23:24:55.602Z,94.83
2022-10-25T23:34:58.838Z,95.70
2022-10-25T23:45:05.359Z,96.43
2022-10-25T23:55:09.630Z,94.67
